Gallina — 9VGC4 — position and weather

sailwx.info

Track history (hours):
 
Tides and Currents Weather Stations Pressure Air Temp Water Temp Dewpoint Dewpoint Depression Visibility Wind Speed Wind Dir Waves Ship Positions

Gallina

Last reported at 2015-Jul-17 13:18 UTC. Time now 2015-Aug-02 12:22 UTC.
Position N 34°13' W 013°58'.
Warning: this ship's position is 15 days out of date.

Type: Ship (hazmat cat A). MMSI: 564646000.

Date/timePositionNaut miles runAvg speedWind from/ knotsBaromVisibWave heightAir tempDewpointWater temp
2015-Jul-17 13:18N 34°13' W 013°58'8416.5
2015-Jul-17 08:14N 34°36' W 012°21'1116.6
2015-Jul-17 07:33N 34°39' W 012°08'1716.7
2015-Jul-17 06:33N 34°44' W 011°48'1716.6
2015-Jul-17 05:33N 34°49' W 011°29'1716.7
2015-Jul-17 04:33N 34°54' W 011°09'1716.5
2015-Jul-17 03:33N 34°59' W 010°50'1815.9
2015-Jul-17 02:23N 35°04' W 010°29'1316.1
2015-Jul-17 01:33N 35°08' W 010°13'1716.1
2015-Jul-17 00:32N 35°12' W 009°53'1616.0
2015-Jul-16 23:33N 35°15' W 009°35'1616.1
2015-Jul-16 22:33N 35°19' W 009°15'1616.3
2015-Jul-16 21:33N 35°23' W 008°56'1615.8
2015-Jul-16 20:33N 35°27' W 008°37'21013.0
2015-Jul-16 04:24N 36°13' W 004°25'7217.3
2015-Jul-16 00:13N 36°24' W 002°56'1217.5
2015-Jul-15 23:33N 36°25' W 002°42'1817.6
2015-Jul-15 22:33N 36°26' W 002°20'2217.9
2015-Jul-15 21:20N 36°30' W 001°54'1418.0
2015-Jul-15 20:33N 36°35' W 001°37'1818.1
2015-Jul-15 19:33N 36°39' W 001°15'1818.2
2015-Jul-15 18:33N 36°44' W 000°53'1717.6
2015-Jul-15 17:33N 36°44' W 000°31'1818.3
2015-Jul-15 16:33N 36°46' W 000°08'1818.2
2015-Jul-15 15:33N 36°50' E 000°14'1817.7
2015-Jul-15 14:32N 36°54' E 000°36'1717.6
2015-Jul-15 13:33N 36°58' E 000°57'1817.4
2015-Jul-15 12:33N 36°58' E 001°19'1818.0
2015-Jul-15 11:33N 37°01' E 001°41'1818.3
2015-Jul-15 10:33N 37°04' E 002°03'1818.1
2015-Jul-15 09:33N 37°08' E 002°26'1818.1
2015-Jul-15 08:34N 37°13' E 002°47'1717.4
2015-Jul-15 07:34N 37°15' E 003°09'1616.3
2015-Jul-15 06:33N 37°18' E 003°29'1717.4
2015-Jul-15 05:34N 37°20' E 003°51'1817.6
2015-Jul-15 04:33N 37°23' E 004°13'2117.7
2015-Jul-15 03:24N 37°27' E 004°38'2217.8
2015-Jul-15 02:09N 37°31' E 005°06'1117.8
2015-Jul-15 01:33N 37°33' E 005°19'1917.7
2015-Jul-15 00:29N 37°36' E 005°43'1617.7
2015-Jul-14 23:33N 37°38' E 006°03'10617.5
2015-Jul-14 17:31N 37°58' E 008°15'1617.1
2015-Jul-14 16:33N 38°01' E 008°35'1616.4
2015-Jul-14 15:34N 38°03' E 008°56'1616.2
2015-Jul-14 14:33N 37°60' E 009°16'1716.5
2015-Jul-14 13:33N 37°60' E 009°37'4815.8
2015-Jul-14 10:31N 37°43' E 010°33'3115.9
2015-Jul-14 08:33N 37°30' E 011°10'1615.8
2015-Jul-14 07:33N 37°23' E 011°27'3316.3
2015-Jul-14 05:33N 37°05' E 012°01'1616.1
2015-Jul-14 04:33N 36°60' E 012°20'1716.6
2015-Jul-14 03:34N 36°56' E 012°41'1616.5
2015-Jul-14 02:33N 36°51' E 013°00'1616.3
2015-Jul-14 01:34N 36°47' E 013°20'1716.5
2015-Jul-14 00:33N 36°40' E 013°39'1716.8
2015-Jul-13 23:33N 36°36' E 013°59'1716.8
2015-Jul-13 22:33N 36°30' E 014°18'1717.1
2015-Jul-13 21:33N 36°25' E 014°39'1717.1
2015-Jul-13 20:33N 36°20' E 014°59'1717.2
2015-Jul-13 19:33N 36°14' E 015°19'5517.1
2015-Jul-13 16:21N 36°01' E 016°25'75416.7
2015-Jul-11 19:06N 32°08' E 030°50'916.1
2015-Jul-11 18:32N 32°04' E 031°00'3316.7
2015-Jul-11 16:33N 31°55' E 031°38'1716.3
2015-Jul-11 15:32N 31°49' E 031°56'1616.0
2015-Jul-11 14:33N 31°44' E 032°13'1515.0
2015-Jul-11 13:33N 31°31' E 032°22'1212.3
2015-Jul-11 12:33N 31°19' E 032°22'  
Track history (hours):
 
Tides and Currents Weather Stations Pressure Air Temp Water Temp Dewpoint Dewpoint Depression Visibility Wind Speed Wind Dir Waves Ship Positions

Gallina

Last reported at 2015-Jul-17 13:18 UTC. Time now 2015-Aug-02 12:22 UTC.
Position N 34°13' W 013°58'.
Warning: this ship's position is 15 days out of date.

Type: Ship (hazmat cat A). MMSI: 564646000.

Date/timePositionNaut miles runAvg speedWind from/ knotsBaromVisibWave heightAir tempDewpointWater temp
2015-Jul-17 13:18N 34°13' W 013°58'8416.5
2015-Jul-17 08:14N 34°36' W 012°21'1116.6
2015-Jul-17 07:33N 34°39' W 012°08'1716.7
2015-Jul-17 06:33N 34°44' W 011°48'1716.6
2015-Jul-17 05:33N 34°49' W 011°29'1716.7
2015-Jul-17 04:33N 34°54' W 011°09'1716.5
2015-Jul-17 03:33N 34°59' W 010°50'1815.9
2015-Jul-17 02:23N 35°04' W 010°29'1316.1
2015-Jul-17 01:33N 35°08' W 010°13'1716.1
2015-Jul-17 00:32N 35°12' W 009°53'1616.0
2015-Jul-16 23:33N 35°15' W 009°35'1616.1
2015-Jul-16 22:33N 35°19' W 009°15'1616.3
2015-Jul-16 21:33N 35°23' W 008°56'1615.8
2015-Jul-16 20:33N 35°27' W 008°37'21013.0
2015-Jul-16 04:24N 36°13' W 004°25'7217.3
2015-Jul-16 00:13N 36°24' W 002°56'1217.5
2015-Jul-15 23:33N 36°25' W 002°42'1817.6
2015-Jul-15 22:33N 36°26' W 002°20'2217.9
2015-Jul-15 21:20N 36°30' W 001°54'1418.0
2015-Jul-15 20:33N 36°35' W 001°37'1818.1
2015-Jul-15 19:33N 36°39' W 001°15'1818.2
2015-Jul-15 18:33N 36°44' W 000°53'1717.6
2015-Jul-15 17:33N 36°44' W 000°31'1818.3
2015-Jul-15 16:33N 36°46' W 000°08'1818.2
2015-Jul-15 15:33N 36°50' E 000°14'1817.7
2015-Jul-15 14:32N 36°54' E 000°36'1717.6
2015-Jul-15 13:33N 36°58' E 000°57'1817.4
2015-Jul-15 12:33N 36°58' E 001°19'1818.0
2015-Jul-15 11:33N 37°01' E 001°41'1818.3
2015-Jul-15 10:33N 37°04' E 002°03'1818.1
2015-Jul-15 09:33N 37°08' E 002°26'1818.1
2015-Jul-15 08:34N 37°13' E 002°47'1717.4
2015-Jul-15 07:34N 37°15' E 003°09'1616.3
2015-Jul-15 06:33N 37°18' E 003°29'1717.4
2015-Jul-15 05:34N 37°20' E 003°51'1817.6
2015-Jul-15 04:33N 37°23' E 004°13'2117.7
2015-Jul-15 03:24N 37°27' E 004°38'2217.8
2015-Jul-15 02:09N 37°31' E 005°06'1117.8
2015-Jul-15 01:33N 37°33' E 005°19'1917.7
2015-Jul-15 00:29N 37°36' E 005°43'1617.7
2015-Jul-14 23:33N 37°38' E 006°03'10617.5
2015-Jul-14 17:31N 37°58' E 008°15'1617.1
2015-Jul-14 16:33N 38°01' E 008°35'1616.4
2015-Jul-14 15:34N 38°03' E 008°56'1616.2
2015-Jul-14 14:33N 37°60' E 009°16'1716.5
2015-Jul-14 13:33N 37°60' E 009°37'4815.8
2015-Jul-14 10:31N 37°43' E 010°33'3115.9
2015-Jul-14 08:33N 37°30' E 011°10'1615.8
2015-Jul-14 07:33N 37°23' E 011°27'3316.3
2015-Jul-14 05:33N 37°05' E 012°01'1616.1
2015-Jul-14 04:33N 36°60' E 012°20'1716.6
2015-Jul-14 03:34N 36°56' E 012°41'1616.5
2015-Jul-14 02:33N 36°51' E 013°00'1616.3
2015-Jul-14 01:34N 36°47' E 013°20'1716.5
2015-Jul-14 00:33N 36°40' E 013°39'1716.8
2015-Jul-13 23:33N 36°36' E 013°59'1716.8
2015-Jul-13 22:33N 36°30' E 014°18'1717.1
2015-Jul-13 21:33N 36°25' E 014°39'1717.1
2015-Jul-13 20:33N 36°20' E 014°59'1717.2
2015-Jul-13 19:33N 36°14' E 015°19'5517.1
2015-Jul-13 16:21N 36°01' E 016°25'75416.7
2015-Jul-11 19:06N 32°08' E 030°50'916.1
2015-Jul-11 18:32N 32°04' E 031°00'3316.7
2015-Jul-11 16:33N 31°55' E 031°38'1716.3
2015-Jul-11 15:32N 31°49' E 031°56'1616.0
2015-Jul-11 14:33N 31°44' E 032°13'1515.0
2015-Jul-11 13:33N 31°31' E 032°22'1212.3
2015-Jul-11 12:33N 31°19' E 032°22'  

Dump ship's entire track history